createdAt,value
2023-03-04T00:09:13.768Z,2.35
2023-03-04T00:19:16.064Z,2.64
2023-03-04T00:29:18.125Z,2.60
2023-03-04T00:39:20.169Z,2.96
2023-03-04T00:49:22.550Z,2.55
2023-03-04T00:59:24.732Z,2.35
2023-03-04T01:09:26.838Z,2.56
2023-03-04T01:19:29.773Z,2.72
2023-03-04T01:29:32.035Z,1.90
2023-03-04T01:39:34.107Z,2.88
2023-03-04T01:49:36.241Z,2.44
2023-03-04T01:59:38.858Z,2.81
2023-03-04T02:09:41.276Z,1.99
2023-03-04T02:19:51.421Z,1.87
2023-03-04T02:29:53.543Z,2.03
2023-03-04T02:39:55.759Z,2.79
2023-03-04T02:49:57.954Z,2.07
2023-03-04T03:00:00.142Z,2.12
2023-03-04T03:10:04.161Z,3.01
2023-03-04T03:20:07.565Z,2.96
2023-03-04T03:30:13.401Z,2.11
2023-03-04T03:40:16.191Z,2.45
2023-03-04T03:50:19.115Z,2.74
2023-03-04T04:00:22.222Z,1.90
2023-03-04T04:10:25.285Z,2.18
2023-03-04T04:20:27.458Z,2.71
2023-03-04T04:30:29.589Z,2.02
2023-03-04T04:40:31.975Z,3.14
2023-03-04T04:50:34.151Z,2.15
2023-03-04T05:00:36.379Z,2.68
2023-03-04T05:10:38.753Z,1.68
2023-03-04T05:20:40.817Z,1.44
2023-03-04T05:30:44.084Z,2.16
2023-03-04T05:40:46.992Z,2.04
2023-03-04T05:50:56.472Z,2.51
2023-03-04T06:01:00.840Z,2.54
2023-03-04T06:11:04.845Z,2.44
2023-03-04T06:21:06.990Z,2.68
2023-03-04T06:31:09.126Z,1.80
2023-03-04T06:41:18.798Z,2.84
2023-03-04T06:51:21.383Z,3.15
2023-03-04T07:01:25.958Z,2.65
2023-03-04T07:11:28.047Z,2.41
2023-03-04T07:21:30.310Z,2.03
2023-03-04T07:31:34.341Z,1.34
2023-03-04T07:41:37.247Z,1.77
2023-03-04T07:51:40.029Z,3.07
2023-03-04T08:01:44.045Z,2.86
2023-03-04T08:11:46.753Z,3.16
2023-03-04T08:21:48.841Z,2.64
2023-03-04T08:31:52.449Z,2.98
2023-03-04T08:41:54.830Z,2.34
2023-03-04T08:51:57.073Z,3.50
2023-03-04T09:01:59.413Z,3.61
2023-03-04T09:12:01.930Z,2.84
2023-03-04T09:22:04.365Z,3.48
2023-03-04T09:32:06.740Z,2.50
2023-03-04T09:42:11.932Z,2.73
2023-03-04T09:52:27.203Z,2.38
2023-03-04T10:02:48.204Z,2.97
2023-03-04T10:12:51.213Z,3.37
2023-03-04T10:23:01.142Z,4.02
2023-03-04T10:33:11.902Z,3.91
2023-03-04T10:43:21.635Z,4.05
2023-03-04T10:53:41.152Z,3.43
2023-03-04T11:03:47.337Z,3.77
2023-03-04T11:13:57.231Z,3.94
2023-03-04T11:24:02.294Z,4.51
2023-03-04T11:34:26.200Z,4.27
2023-03-04T11:44:29.408Z,4.52
2023-03-04T11:54:48.128Z,4.44
2023-03-04T12:05:11.258Z,4.08
2023-03-04T12:15:19.589Z,4.19
2023-03-04T12:25:34.685Z,4.47
2023-03-04T12:36:02.277Z,4.17
2023-03-04T12:46:15.192Z,3.25
2023-03-04T12:56:31.005Z,3.49
2023-03-04T13:06:54.618Z,4.23
2023-03-04T13:17:02.391Z,4.94
2023-03-04T13:27:42.132Z,4.31
2023-03-04T13:37:57.960Z,4.32
2023-03-04T13:48:00.624Z,3.18
2023-03-04T13:58:14.952Z,4.85
2023-03-04T14:08:18.986Z,4.35
2023-03-04T14:18:21.299Z,4.67
2023-03-04T14:28:23.404Z,4.72
2023-03-04T14:38:32.262Z,4.63
2023-03-04T14:48:35.630Z,4.48
2023-03-04T14:58:39.738Z,4.01
2023-03-04T15:08:42.325Z,4.50
2023-03-04T15:19:29.291Z,4.30
2023-03-04T15:29:31.567Z,4.31
2023-03-04T15:39:33.814Z,4.05
2023-03-04T15:49:36.162Z,4.08
2023-03-04T15:59:38.546Z,3.67
2023-03-04T16:09:40.651Z,4.45
2023-03-04T16:19:43.067Z,4.03
2023-03-04T16:29:45.266Z,3.85
2023-03-04T16:39:49.102Z,4.51
2023-03-04T16:49:51.268Z,4.04
2023-03-04T16:59:54.911Z,3.87
2023-03-04T17:09:57.033Z,4.02
2023-03-04T17:19:59.507Z,3.96
2023-03-04T17:30:06.806Z,5.04
2023-03-04T17:40:14.054Z,3.72
2023-03-04T17:50:16.400Z,4.69
2023-03-04T18:00:20.244Z,4.42
2023-03-04T18:10:22.573Z,4.13
2023-03-04T18:20:24.670Z,4.14
2023-03-04T18:30:27.511Z,4.47
2023-03-04T18:40:29.738Z,4.20
2023-03-04T18:50:31.942Z,3.86
2023-03-04T19:00:34.295Z,4.52
2023-03-04T19:10:36.428Z,4.32
2023-03-04T19:20:41.352Z,3.94
2023-03-04T19:30:43.680Z,4.00
2023-03-04T19:40:46.823Z,3.99
2023-03-04T19:50:49.641Z,3.37
2023-03-04T20:00:54.764Z,3.86
2023-03-04T20:10:57.263Z,4.11
2023-03-04T20:20:59.462Z,3.39
2023-03-04T20:31:20.704Z,4.08
2023-03-04T20:41:24.196Z,4.06
2023-03-04T20:51:26.614Z,3.28
2023-03-04T21:01:31.073Z,3.75
2023-03-04T21:11:40.033Z,3.98
2023-03-04T21:21:43.092Z,3.75
2023-03-04T21:32:26.923Z,3.36
2023-03-04T21:42:29.063Z,3.60
2023-03-04T21:52:31.240Z,3.44
2023-03-04T22:02:34.779Z,3.57
2023-03-04T22:12:36.819Z,3.14
2023-03-04T22:22:39.161Z,3.52
2023-03-04T22:32:44.501Z,3.11
2023-03-04T22:42:47.821Z,3.09
2023-03-04T22:52:50.036Z,3.12
2023-03-04T23:02:52.406Z,3.67
2023-03-04T23:12:54.718Z,3.32
2023-03-04T23:22:56.855Z,3.77
2023-03-04T23:32:58.941Z,3.87
2023-03-04T23:43:01.245Z,3.64
2023-03-04T23:53:03.483Z,3.26
